Tiger Henan — VRPT3 — position and weather

sailwx.info

Track history (hours):
 
Tides and Currents Weather Stations Pressure Air Temp Water Temp Dewpoint Dewpoint Depression Visibility Wind Speed Wind Dir Waves Ship Positions

Tiger Henan

Last reported at 2017-Oct-19 10:27 UTC. Time now 2017-Oct-19 16:12 UTC.
Position N 38°12' W 023°56'.

Length 199 m; draft 13.3 m.

Type: Cargo ship. MMSI: 477669900.

Date/timePositionNaut miles runAvg speedWind from/ knotsBaromVisibWave heightAir tempDewpointWater temp
2017-Oct-19 10:27N 38°12' W 023°56'511.7
2017-Oct-19 10:00N 38°13' W 024°03'611.8
2017-Oct-19 09:30N 38°13' W 024°10'611.8
2017-Oct-19 09:00N 38°14' W 024°18'611.8
2017-Oct-19 08:30N 38°14' W 024°25'612.1
2017-Oct-19 08:00N 38°15' W 024°33'612.1
2017-Oct-19 07:30N 38°15' W 024°41'612.1
2017-Oct-19 07:00N 38°15' W 024°48'612.1
2017-Oct-19 06:30N 38°16' W 024°56'611.9
2017-Oct-19 06:00N 38°16' W 025°03'612.3
2017-Oct-19 05:30N 38°17' W 025°11'612.4
2017-Oct-19 05:00N 38°18' W 025°19'612.6
2017-Oct-19 04:30N 38°18' W 025°27'612.2
2017-Oct-19 04:00N 38°18' W 025°35'612.0
2017-Oct-19 03:30N 38°19' W 025°43'612.3
2017-Oct-19 03:00N 38°20' W 025°50'612.0
2017-Oct-19 02:30N 38°20' W 025°58'612.4
2017-Oct-19 02:00N 38°20' W 026°06'612.5
2017-Oct-19 01:30N 38°20' W 026°14'613.0
2017-Oct-19 01:00N 38°20' W 026°22'713.2
2017-Oct-19 00:31N 38°19' W 026°30'712.9
2017-Oct-19 00:00N 38°19' W 026°39'612.8
2017-Oct-18 23:30N 38°18' W 026°47'612.7
2017-Oct-18 23:00N 38°17' W 026°55'612.4
2017-Oct-18 22:30N 38°16' W 027°03'612.5
2017-Oct-18 22:00N 38°16' W 027°11'612.8
2017-Oct-18 21:30N 38°15' W 027°19'612.5
2017-Oct-18 21:00N 38°14' W 027°27'612.6
2017-Oct-18 20:30N 38°14' W 027°35'612.6
2017-Oct-18 20:00N 38°13' W 027°43'612.3
2017-Oct-18 19:31N 38°12' W 027°50'612.3
2017-Oct-18 19:00N 38°11' W 027°58'612.7
2017-Oct-18 18:30N 38°11' W 028°06'1013.3
2017-Oct-18 17:45N 38°10' W 028°19'413.0
2017-Oct-18 17:26N 38°10' W 028°24'812.6
2017-Oct-18 16:50N 38°09' W 028°34'412.6
2017-Oct-18 16:30N 38°10' W 028°39'1412.3
2017-Oct-18 15:23N 38°10' W 028°56'2012.4
2017-Oct-18 13:45N 38°10' W 029°22'412.3
2017-Oct-18 13:25N 38°10' W 029°27'512.2
2017-Oct-18 13:00N 38°10' W 029°34'911.9
2017-Oct-18 12:13N 38°10' W 029°46'311.8
2017-Oct-18 11:59N 38°10' W 029°49'612.2
2017-Oct-18 11:27N 38°10' W 029°57'612.0
2017-Oct-18 10:59N 38°10' W 030°04'611.7
2017-Oct-18 10:29N 38°09' W 030°12'611.3
2017-Oct-18 09:59N 38°09' W 030°19'  
Track history (hours):
 
Tides and Currents Weather Stations Pressure Air Temp Water Temp Dewpoint Dewpoint Depression Visibility Wind Speed Wind Dir Waves Ship Positions

Tiger Henan

Last reported at 2017-Oct-19 10:27 UTC. Time now 2017-Oct-19 16:12 UTC.
Position N 38°12' W 023°56'.

Length 199 m; draft 13.3 m.

Type: Cargo ship. MMSI: 477669900.

Date/timePositionNaut miles runAvg speedWind from/ knotsBaromVisibWave heightAir tempDewpointWater temp
2017-Oct-19 10:27N 38°12' W 023°56'511.7
2017-Oct-19 10:00N 38°13' W 024°03'611.8
2017-Oct-19 09:30N 38°13' W 024°10'611.8
2017-Oct-19 09:00N 38°14' W 024°18'611.8
2017-Oct-19 08:30N 38°14' W 024°25'612.1
2017-Oct-19 08:00N 38°15' W 024°33'612.1
2017-Oct-19 07:30N 38°15' W 024°41'612.1
2017-Oct-19 07:00N 38°15' W 024°48'612.1
2017-Oct-19 06:30N 38°16' W 024°56'611.9
2017-Oct-19 06:00N 38°16' W 025°03'612.3
2017-Oct-19 05:30N 38°17' W 025°11'612.4
2017-Oct-19 05:00N 38°18' W 025°19'612.6
2017-Oct-19 04:30N 38°18' W 025°27'612.2
2017-Oct-19 04:00N 38°18' W 025°35'612.0
2017-Oct-19 03:30N 38°19' W 025°43'612.3
2017-Oct-19 03:00N 38°20' W 025°50'612.0
2017-Oct-19 02:30N 38°20' W 025°58'612.4
2017-Oct-19 02:00N 38°20' W 026°06'612.5
2017-Oct-19 01:30N 38°20' W 026°14'613.0
2017-Oct-19 01:00N 38°20' W 026°22'713.2
2017-Oct-19 00:31N 38°19' W 026°30'712.9
2017-Oct-19 00:00N 38°19' W 026°39'612.8
2017-Oct-18 23:30N 38°18' W 026°47'612.7
2017-Oct-18 23:00N 38°17' W 026°55'612.4
2017-Oct-18 22:30N 38°16' W 027°03'612.5
2017-Oct-18 22:00N 38°16' W 027°11'612.8
2017-Oct-18 21:30N 38°15' W 027°19'612.5
2017-Oct-18 21:00N 38°14' W 027°27'612.6
2017-Oct-18 20:30N 38°14' W 027°35'612.6
2017-Oct-18 20:00N 38°13' W 027°43'612.3
2017-Oct-18 19:31N 38°12' W 027°50'612.3
2017-Oct-18 19:00N 38°11' W 027°58'612.7
2017-Oct-18 18:30N 38°11' W 028°06'1013.3
2017-Oct-18 17:45N 38°10' W 028°19'413.0
2017-Oct-18 17:26N 38°10' W 028°24'812.6
2017-Oct-18 16:50N 38°09' W 028°34'412.6
2017-Oct-18 16:30N 38°10' W 028°39'1412.3
2017-Oct-18 15:23N 38°10' W 028°56'2012.4
2017-Oct-18 13:45N 38°10' W 029°22'412.3
2017-Oct-18 13:25N 38°10' W 029°27'512.2
2017-Oct-18 13:00N 38°10' W 029°34'911.9
2017-Oct-18 12:13N 38°10' W 029°46'311.8
2017-Oct-18 11:59N 38°10' W 029°49'612.2
2017-Oct-18 11:27N 38°10' W 029°57'612.0
2017-Oct-18 10:59N 38°10' W 030°04'611.7
2017-Oct-18 10:29N 38°09' W 030°12'611.3
2017-Oct-18 09:59N 38°09' W 030°19'  

Dump ship's entire track history